createdAt,value
2019-02-15T00:01:18.860Z,102837.48
2019-02-15T00:03:44.877Z,102845.50
2019-02-15T00:06:10.883Z,102838.52
2019-02-15T00:08:36.870Z,102841.14
2019-02-15T00:11:02.901Z,102838.44
2019-02-15T00:13:28.912Z,102837.19
2019-02-15T00:15:54.913Z,102841.73
2019-02-15T00:18:20.901Z,102832.03
2019-02-15T00:20:46.911Z,102839.83
2019-02-15T00:23:12.888Z,102837.38
2019-02-15T00:25:38.894Z,102837.78
2019-02-15T00:28:04.897Z,102840.01
2019-02-15T00:30:30.879Z,102842.35
2019-02-15T00:32:56.904Z,102834.92
2019-02-15T00:35:22.916Z,102831.34
2019-02-15T00:37:48.897Z,102836.61
2019-02-15T00:40:14.958Z,102837.92
2019-02-15T00:42:40.981Z,102836.61
2019-02-15T00:45:06.943Z,102840.19
2019-02-15T00:47:32.971Z,102838.03
2019-02-15T00:49:58.964Z,102836.23
2019-02-15T00:52:24.947Z,102833.97
2019-02-15T00:54:50.937Z,102833.28
2019-02-15T00:57:16.941Z,102826.77
2019-02-15T00:59:42.928Z,102830.16
2019-02-15T01:02:08.918Z,102827.16
2019-02-15T01:04:34.904Z,102829.87
2019-02-15T01:07:00.957Z,102830.42
2019-02-15T01:09:26.978Z,102823.28
2019-02-15T01:11:52.992Z,102822.44
2019-02-15T01:14:19.027Z,102820.66
2019-02-15T01:16:45.100Z,102822.34
2019-02-15T01:19:11.080Z,102821.97
2019-02-15T01:21:37.080Z,102821.20
2019-02-15T01:24:03.092Z,102817.65
2019-02-15T01:26:29.111Z,102813.77
2019-02-15T01:28:55.100Z,102815.64
2019-02-15T01:31:21.078Z,102815.56
2019-02-15T01:33:47.076Z,102816.41
2019-02-15T01:36:13.054Z,102811.13
2019-02-15T01:38:39.033Z,102810.37
2019-02-15T01:41:05.048Z,102807.73
2019-02-15T01:43:39.572Z,102805.09
2019-02-15T01:45:58.761Z,102803.41
2019-02-15T01:48:24.738Z,102797.95
2019-02-15T01:50:50.737Z,102802.46
2019-02-15T01:53:16.725Z,102798.03
2019-02-15T01:55:42.729Z,102805.09
2019-02-15T01:58:08.718Z,102798.58
2019-02-15T02:00:34.695Z,102795.22
2019-02-15T02:03:00.687Z,102796.97
2019-02-15T02:05:26.663Z,102797.45
2019-02-15T02:07:52.645Z,102796.90
2019-02-15T02:10:18.618Z,102785.12
2019-02-15T02:12:44.623Z,102780.32
2019-02-15T02:15:10.589Z,102786.06
2019-02-15T02:17:36.595Z,102778.16
2019-02-15T02:20:02.590Z,102776.08
2019-02-15T02:22:28.585Z,102772.53
2019-02-15T02:24:54.582Z,102771.80
2019-02-15T02:27:20.682Z,102766.71
2019-02-15T02:29:46.652Z,102758.50
2019-02-15T02:32:12.696Z,102764.47
2019-02-15T02:34:38.683Z,102765.80
2019-02-15T02:37:04.672Z,102759.97
2019-02-15T02:39:30.663Z,102760.19
2019-02-15T02:41:56.740Z,102762.45
2019-02-15T02:44:22.740Z,102760.11
2019-02-15T02:46:48.732Z,102761.80
2019-02-15T02:49:14.715Z,102760.48
2019-02-15T02:51:40.772Z,102759.09
2019-02-15T02:54:06.820Z,102761.45
2019-02-15T02:56:32.786Z,102756.27
2019-02-15T02:58:58.844Z,102755.42
2019-02-15T03:01:24.829Z,102756.48
2019-02-15T03:03:50.881Z,102756.95
2019-02-15T03:06:16.860Z,102752.13
2019-02-15T03:08:42.837Z,102752.34
2019-02-15T03:11:08.841Z,102754.12
2019-02-15T03:13:34.838Z,102749.23
2019-02-15T03:16:00.848Z,102749.34
2019-02-15T03:18:26.863Z,102746.78
2019-02-15T03:20:52.849Z,102749.98
2019-02-15T03:23:19.028Z,102742.48
2019-02-15T03:25:45.034Z,102744.72
2019-02-15T03:28:11.087Z,102741.05
2019-02-15T03:30:37.143Z,102741.89
2019-02-15T03:33:03.122Z,102742.37
2019-02-15T03:35:29.127Z,102744.45
2019-02-15T03:37:55.201Z,102745.58
2019-02-15T03:40:21.264Z,102742.39
2019-02-15T03:42:47.232Z,102744.95
2019-02-15T03:45:13.241Z,102737.52
2019-02-15T03:47:39.221Z,102735.61
2019-02-15T03:50:05.226Z,102730.19
2019-02-15T03:52:31.211Z,102739.30
2019-02-15T03:54:57.196Z,102732.82
2019-02-15T03:57:23.208Z,102734.14
2019-02-15T03:59:49.332Z,102732.63
2019-02-15T04:02:15.343Z,102723.77
2019-02-15T04:04:41.402Z,102725.56
2019-02-15T04:07:07.372Z,102724.16
2019-02-15T04:09:33.347Z,102728.48
2019-02-15T04:11:59.336Z,102729.72
2019-02-15T04:14:32.575Z,102725.08
2019-02-15T04:16:53.049Z,102728.48
2019-02-15T04:19:19.025Z,102732.25
2019-02-15T04:21:45.004Z,102730.84
2019-02-15T04:24:13.378Z,102730.09
2019-02-15T04:26:38.757Z,102732.17
2019-02-15T04:29:04.810Z,102728.14
2019-02-15T04:31:30.787Z,102730.38
2019-02-15T04:33:56.775Z,102726.42
2019-02-15T04:36:22.845Z,102727.18
2019-02-15T04:38:48.829Z,102726.91
2019-02-15T04:41:14.819Z,102730.30
2019-02-15T04:43:40.864Z,102728.03
2019-02-15T04:46:06.859Z,102728.33
2019-02-15T04:48:32.849Z,102723.72
2019-02-15T04:50:58.851Z,102727.77
2019-02-15T04:53:24.888Z,102725.13
2019-02-15T04:55:50.883Z,102730.59
2019-02-15T04:58:16.878Z,102725.68
2019-02-15T05:00:42.860Z,102725.04
2019-02-15T05:03:08.853Z,102721.45
2019-02-15T05:05:34.829Z,102721.53
2019-02-15T05:08:00.827Z,102721.25
2019-02-15T05:10:26.871Z,102720.61
2019-02-15T05:12:52.875Z,102720.80
2019-02-15T05:15:18.915Z,102719.00
2019-02-15T05:17:44.947Z,102714.94
2019-02-15T05:20:10.962Z,102717.49
2019-02-15T05:22:36.992Z,102717.97
2019-02-15T05:25:02.980Z,102717.02
2019-02-15T05:27:28.987Z,102720.05
2019-02-15T05:29:54.975Z,102715.89
2019-02-15T05:32:20.986Z,102713.27
2019-02-15T05:34:46.961Z,102716.38
2019-02-15T05:37:12.952Z,102717.98
2019-02-15T05:39:38.956Z,102722.22
2019-02-15T05:42:05.023Z,102718.34
2019-02-15T05:44:31.017Z,102722.89
2019-02-15T05:46:57.081Z,102724.30
2019-02-15T05:49:23.091Z,102729.77
2019-02-15T05:51:49.078Z,102725.25
2019-02-15T05:54:15.064Z,102725.17
2019-02-15T05:56:41.543Z,102726.09
2019-02-15T05:59:07.546Z,102721.84
2019-02-15T06:01:33.576Z,102730.23
2019-02-15T06:03:59.627Z,102733.70
2019-02-15T06:06:25.644Z,102740.02
2019-02-15T06:08:51.689Z,102737.10
2019-02-15T06:11:17.782Z,102734.75
2019-02-15T06:13:43.804Z,102731.37
2019-02-15T06:16:09.799Z,102731.09
2019-02-15T06:18:35.794Z,102732.69
2019-02-15T06:21:01.826Z,102729.69
2019-02-15T06:23:27.823Z,102726.77
2019-02-15T06:25:53.824Z,102730.25
2019-02-15T06:28:19.912Z,102724.98
2019-02-15T06:30:47.068Z,102733.93
2019-02-15T06:33:13.116Z,102730.45
2019-02-15T06:35:39.167Z,102734.02
2019-02-15T06:38:05.169Z,102735.73
2019-02-15T06:40:31.154Z,102733.53
2019-02-15T06:42:57.151Z,102736.77
2019-02-15T06:45:25.242Z,102737.09
2019-02-15T06:47:50.889Z,102740.80
2019-02-15T06:50:16.876Z,102741.56
2019-02-15T06:52:42.867Z,102741.17
2019-02-15T06:55:08.841Z,102741.37
2019-02-15T06:57:34.899Z,102739.20
2019-02-15T07:00:00.926Z,102740.24
2019-02-15T07:02:27.000Z,102737.12
2019-02-15T07:04:52.986Z,102751.56
2019-02-15T07:07:19.055Z,102752.84
2019-02-15T07:09:45.037Z,102757.20
2019-02-15T07:12:11.079Z,102758.44
2019-02-15T07:14:37.062Z,102760.12
2019-02-15T07:17:03.044Z,102759.09
2019-02-15T07:19:29.030Z,102760.20
2019-02-15T07:21:55.056Z,102761.16
2019-02-15T07:24:21.134Z,102765.04
2019-02-15T07:26:47.287Z,102762.48
2019-02-15T07:29:13.288Z,102765.96
2019-02-15T07:31:39.303Z,102765.48
2019-02-15T07:34:05.300Z,102765.96
2019-02-15T07:36:31.359Z,102771.44
2019-02-15T07:38:57.407Z,102770.20
2019-02-15T07:41:23.411Z,102774.16
2019-02-15T07:43:49.387Z,102772.00
2019-02-15T07:46:15.464Z,102772.20
2019-02-15T07:48:41.448Z,102769.28
2019-02-15T07:51:09.636Z,102764.47
2019-02-15T07:53:35.164Z,102769.47
2019-02-15T07:56:01.183Z,102765.13
2019-02-15T07:58:27.261Z,102766.64
2019-02-15T08:00:53.265Z,102766.08
2019-02-15T08:03:19.247Z,102753.80
2019-02-15T08:05:45.251Z,102759.09
2019-02-15T08:08:11.242Z,102758.24
2019-02-15T08:10:38.992Z,102760.04
2019-02-15T08:13:04.945Z,102760.04
2019-02-15T08:15:36.165Z,102759.64
2019-02-15T08:17:58.794Z,102751.36
2019-02-15T08:20:24.772Z,102751.00
2019-02-15T08:22:50.752Z,102741.28
2019-02-15T08:25:16.771Z,102743.08
2019-02-15T08:27:42.889Z,102748.08
2019-02-15T08:30:08.903Z,102746.28
2019-02-15T08:32:34.889Z,102745.33
2019-02-15T08:35:00.903Z,102744.01
2019-02-15T08:37:26.904Z,102741.48
2019-02-15T08:39:52.890Z,102739.69
2019-02-15T08:42:18.884Z,102740.33
2019-02-15T08:44:44.858Z,102742.32
2019-02-15T08:47:10.927Z,102737.21
2019-02-15T08:49:36.924Z,102737.21
2019-02-15T08:52:02.911Z,102729.13
2019-02-15T08:54:28.918Z,102731.20
2019-02-15T08:56:54.895Z,102735.89
2019-02-15T08:59:20.874Z,102736.65
2019-02-15T09:01:46.852Z,102736.64
2019-02-15T09:04:12.935Z,102729.20
2019-02-15T09:06:38.931Z,102735.33
2019-02-15T09:09:04.945Z,102730.81
2019-02-15T09:11:30.933Z,102730.61
2019-02-15T09:13:56.901Z,102724.89
2019-02-15T09:16:22.895Z,102724.96
2019-02-15T09:18:48.990Z,102723.25
2019-02-15T09:21:14.994Z,102719.56
2019-02-15T09:23:40.971Z,102720.52
2019-02-15T09:26:06.994Z,102717.31
2019-02-15T09:28:32.970Z,102720.80
2019-02-15T09:30:58.963Z,102719.97
2019-02-15T09:33:24.945Z,102715.32
2019-02-15T09:35:50.934Z,102720.86
2019-02-15T09:38:16.936Z,102719.92
2019-02-15T09:40:42.925Z,102714.74
2019-02-15T09:43:09.019Z,102713.83
2019-02-15T09:45:35.033Z,102715.16
2019-02-15T09:48:01.080Z,102706.08
2019-02-15T09:50:27.084Z,102708.63
2019-02-15T09:52:53.067Z,102706.62
2019-02-15T09:55:19.077Z,102704.16
2019-02-15T09:57:45.090Z,102701.72
2019-02-15T10:00:11.111Z,102699.44
2019-02-15T10:02:37.144Z,102701.61
2019-02-15T10:05:03.263Z,102696.66
2019-02-15T10:07:29.373Z,102697.97
2019-02-15T10:09:55.399Z,102696.26
2019-02-15T10:12:21.408Z,102701.19
2019-02-15T10:14:47.394Z,102697.49
2019-02-15T10:17:13.583Z,102700.61
2019-02-15T10:19:39.599Z,102700.22
2019-02-15T10:22:05.650Z,102696.73
2019-02-15T10:24:31.680Z,102693.53
2019-02-15T10:26:57.660Z,102695.33
2019-02-15T10:29:23.654Z,102686.54
2019-02-15T10:31:49.671Z,102687.70
2019-02-15T10:34:15.653Z,102686.66
2019-02-15T10:36:41.720Z,102693.63
2019-02-15T10:39:07.741Z,102696.66
2019-02-15T10:41:33.877Z,102693.34
2019-02-15T10:43:59.873Z,102690.14
2019-02-15T10:46:25.964Z,102693.14
2019-02-15T10:48:51.949Z,102689.09
2019-02-15T10:51:17.954Z,102685.42
2019-02-15T10:53:43.921Z,102690.63
2019-02-15T10:56:09.935Z,102686.66
2019-02-15T10:58:35.991Z,102679.29
2019-02-15T11:01:01.974Z,102680.81
2019-02-15T11:03:27.987Z,102675.14
2019-02-15T11:05:54.056Z,102678.73
2019-02-15T11:08:20.072Z,102669.38
2019-02-15T11:10:46.240Z,102672.98
2019-02-15T11:13:12.284Z,102666.86
2019-02-15T11:15:38.338Z,102661.84
2019-02-15T11:18:04.446Z,102661.09
2019-02-15T11:20:30.456Z,102663.65
2019-02-15T11:22:56.592Z,102661.94
2019-02-15T11:25:22.593Z,102658.37
2019-02-15T11:27:48.667Z,102653.45
2019-02-15T11:30:14.644Z,102657.89
2019-02-15T11:32:40.676Z,102649.70
2019-02-15T11:35:06.723Z,102646.48
2019-02-15T11:37:32.757Z,102643.45
2019-02-15T11:39:58.716Z,102640.25
2019-02-15T11:42:24.730Z,102640.81
2019-02-15T11:44:50.737Z,102634.97
2019-02-15T11:47:16.762Z,102627.05
2019-02-15T11:49:42.746Z,102627.05
2019-02-15T11:52:08.774Z,102622.72
2019-02-15T11:54:34.775Z,102615.16
2019-02-15T11:57:00.748Z,102619.87
2019-02-15T11:59:26.841Z,102610.63
2019-02-15T12:01:52.960Z,102606.55
2019-02-15T12:04:18.973Z,102602.86
2019-02-15T12:06:44.958Z,102602.86
2019-02-15T12:09:10.961Z,102593.17
2019-02-15T12:11:37.137Z,102590.53
2019-02-15T12:14:03.193Z,102592.69
2019-02-15T12:16:29.175Z,102580.33
2019-02-15T12:18:55.206Z,102575.05
2019-02-15T12:21:21.244Z,102577.20
2019-02-15T12:23:47.232Z,102571.92
2019-02-15T12:26:13.219Z,102573.09
2019-02-15T12:28:39.199Z,102567.81
2019-02-15T12:31:05.566Z,102559.68
2019-02-15T12:33:31.577Z,102554.58
2019-02-15T12:35:57.644Z,102547.14
2019-02-15T12:38:23.649Z,102542.47
2019-02-15T12:40:49.656Z,102543.13
2019-02-15T12:43:15.647Z,102541.14
2019-02-15T12:45:41.672Z,102532.47
2019-02-15T12:48:07.686Z,102528.52
2019-02-15T12:50:33.729Z,102531.33
2019-02-15T12:52:59.723Z,102525.23
2019-02-15T12:55:28.095Z,102517.18
2019-02-15T12:57:53.444Z,102515.45
2019-02-15T13:00:19.926Z,102506.84
2019-02-15T13:02:46.093Z,102497.85
2019-02-15T13:05:12.102Z,102499.92
2019-02-15T13:07:38.070Z,102494.59
2019-02-15T13:10:04.079Z,102496.41
2019-02-15T13:12:31.178Z,102490.23
2019-02-15T13:14:57.215Z,102485.44
2019-02-15T13:17:25.009Z,102484.60
2019-02-15T13:19:50.915Z,102472.72
2019-02-15T13:22:16.947Z,102476.67
2019-02-15T13:24:43.299Z,102477.25
2019-02-15T13:27:09.507Z,102466.69
2019-02-15T13:29:36.532Z,102456.48
2019-02-15T13:32:02.537Z,102462.16
2019-02-15T13:34:28.542Z,102453.63
2019-02-15T13:36:54.521Z,102448.95
2019-02-15T13:39:20.578Z,102442.44
2019-02-15T13:41:46.601Z,102446.72
2019-02-15T13:44:12.686Z,102443.28
2019-02-15T13:46:38.750Z,102442.31
2019-02-15T13:49:04.749Z,102438.75
2019-02-15T13:51:30.747Z,102439.10
2019-02-15T13:53:56.757Z,102427.48
2019-02-15T13:56:22.788Z,102429.77
2019-02-15T13:58:48.772Z,102428.80
2019-02-15T14:01:14.799Z,102426.91
2019-02-15T14:03:40.811Z,102419.73
2019-02-15T14:06:06.802Z,102418.89
2019-02-15T14:08:32.792Z,102418.89
2019-02-15T14:10:58.801Z,102412.39
2019-02-15T14:13:24.811Z,102405.78
2019-02-15T14:15:50.860Z,102408.42
2019-02-15T14:18:16.899Z,102401.47
2019-02-15T14:20:42.898Z,102401.66
2019-02-15T14:23:08.871Z,102398.22
2019-02-15T14:25:34.977Z,102397.34
2019-02-15T14:28:01.075Z,102391.63
2019-02-15T14:30:27.074Z,102392.77
2019-02-15T14:32:53.061Z,102382.80
2019-02-15T14:35:19.055Z,102381.59
2019-02-15T14:37:45.070Z,102383.97
2019-02-15T14:40:11.046Z,102382.87
2019-02-15T14:42:37.028Z,102372.50
2019-02-15T14:45:03.037Z,102370.65
2019-02-15T14:47:29.106Z,102368.01
2019-02-15T14:49:55.095Z,102362.16
2019-02-15T14:52:21.109Z,102360.84
2019-02-15T14:54:47.204Z,102361.81
2019-02-15T14:57:13.175Z,102361.16
2019-02-15T14:59:39.139Z,102359.95
2019-02-15T15:02:05.150Z,102361.94
2019-02-15T15:04:31.143Z,102354.50
2019-02-15T15:06:57.149Z,102354.23
2019-02-15T15:09:23.126Z,102348.58
2019-02-15T15:11:49.112Z,102346.98
2019-02-15T15:14:15.095Z,102340.88
2019-02-15T15:16:41.076Z,102335.81
2019-02-15T15:19:07.062Z,102335.55
2019-02-15T15:21:34.975Z,102328.95
2019-02-15T15:24:00.813Z,102332.52
2019-02-15T15:26:26.797Z,102331.80
2019-02-15T15:28:52.840Z,102328.30
2019-02-15T15:31:18.852Z,102324.94
2019-02-15T15:33:44.926Z,102323.14
2019-02-15T15:36:10.904Z,102323.23
2019-02-15T15:38:36.880Z,102315.89
2019-02-15T15:41:02.905Z,102318.27
2019-02-15T15:43:29.078Z,102320.90
2019-02-15T15:45:55.096Z,102308.77
2019-02-15T15:48:22.945Z,102307.57
2019-02-15T15:50:48.915Z,102308.41
2019-02-15T15:53:15.033Z,102306.83
2019-02-15T15:55:41.029Z,102299.75
2019-02-15T15:58:07.030Z,102302.96
2019-02-15T16:00:38.956Z,102300.45
2019-02-15T16:03:00.739Z,102294.21
2019-02-15T16:05:26.774Z,102299.58
2019-02-15T16:07:52.856Z,102291.22
2019-02-15T16:10:18.829Z,102293.14
2019-02-15T16:12:44.824Z,102289.66
2019-02-15T16:15:10.965Z,102299.16
2019-02-15T16:17:37.099Z,102298.20
2019-02-15T16:20:03.403Z,102291.04
2019-02-15T16:22:29.397Z,102288.88
2019-02-15T16:24:55.440Z,102283.97
2019-02-15T16:27:21.547Z,102278.70
2019-02-15T16:29:47.556Z,102282.65
2019-02-15T16:32:13.572Z,102278.34
2019-02-15T16:34:39.557Z,102283.12
2019-02-15T16:37:05.579Z,102281.42
2019-02-15T16:39:31.575Z,102281.42
2019-02-15T16:41:57.596Z,102282.74
2019-02-15T16:44:23.644Z,102281.91
2019-02-15T16:46:49.676Z,102281.42
2019-02-15T16:49:15.730Z,102278.91
2019-02-15T16:51:41.913Z,102277.68
2019-02-15T16:54:07.902Z,102277.68
2019-02-15T16:56:34.054Z,102270.73
2019-02-15T16:59:00.168Z,102272.89
2019-02-15T17:01:26.212Z,102275.62
2019-02-15T17:03:52.315Z,102280.44
2019-02-15T17:06:18.788Z,102282.11
2019-02-15T17:08:44.906Z,102281.75
2019-02-15T17:11:10.898Z,102283.17
2019-02-15T17:13:36.976Z,102285.80
2019-02-15T17:16:02.979Z,102276.36
2019-02-15T17:18:28.987Z,102283.12
2019-02-15T17:20:55.074Z,102276.58
2019-02-15T17:23:22.220Z,102280.83
2019-02-15T17:25:48.216Z,102279.16
2019-02-15T17:28:14.189Z,102279.99
2019-02-15T17:30:40.190Z,102279.99
2019-02-15T17:33:06.267Z,102284.78
2019-02-15T17:35:32.340Z,102276.40
2019-02-15T17:37:58.314Z,102282.14
2019-02-15T17:40:24.410Z,102284.30
2019-02-15T17:42:50.422Z,102285.05
2019-02-15T17:45:16.421Z,102287.63
2019-02-15T17:47:42.436Z,102287.21
2019-02-15T17:50:08.440Z,102282.42
2019-02-15T17:52:34.477Z,102286.02
2019-02-15T17:55:00.471Z,102280.73
2019-02-15T17:57:26.444Z,102279.87
2019-02-15T17:59:52.468Z,102275.47
2019-02-15T18:02:18.486Z,102276.04
2019-02-15T18:04:44.664Z,102275.56
2019-02-15T18:07:10.864Z,102276.04
2019-02-15T18:09:36.939Z,102277.84
2019-02-15T18:12:02.927Z,102275.65
2019-02-15T18:14:28.918Z,102277.84
2019-02-15T18:16:54.922Z,102280.56
2019-02-15T18:19:20.970Z,102277.56
2019-02-15T18:21:47.142Z,102280.56
2019-02-15T18:24:13.232Z,102278.02
2019-02-15T18:26:39.247Z,102282.18
2019-02-15T18:29:05.285Z,102281.70
2019-02-15T18:31:31.283Z,102286.97
2019-02-15T18:33:57.292Z,102280.77
2019-02-15T18:36:23.313Z,102277.66
2019-02-15T18:38:49.323Z,102278.14
2019-02-15T18:41:15.343Z,102278.61
2019-02-15T18:43:41.347Z,102283.28
2019-02-15T18:46:07.385Z,102277.66
2019-02-15T18:48:33.442Z,102277.66
2019-02-15T18:50:59.506Z,102274.19
2019-02-15T18:53:25.534Z,102269.75
2019-02-15T18:55:51.626Z,102266.16
2019-02-15T18:58:17.633Z,102269.75
2019-02-15T19:00:43.715Z,102265.80
2019-02-15T19:03:09.771Z,102264.13
2019-02-15T19:05:35.796Z,102276.25
2019-02-15T19:08:01.807Z,102266.63
2019-02-15T19:10:27.853Z,102274.06
2019-02-15T19:12:53.862Z,102269.75
2019-02-15T19:15:19.960Z,102267.69
2019-02-15T19:17:46.028Z,102268.52
2019-02-15T19:20:12.111Z,102269.84
2019-02-15T19:22:38.153Z,102267.20
2019-02-15T19:25:04.203Z,102255.83
2019-02-15T19:27:30.178Z,102261.09
2019-02-15T19:29:56.189Z,102257.63
2019-02-15T19:32:22.257Z,102259.90
2019-02-15T19:34:48.261Z,102250.86
2019-02-15T19:37:14.312Z,102259.90
2019-02-15T19:39:40.340Z,102262.41
2019-02-15T19:42:06.335Z,102260.73
2019-02-15T19:44:32.396Z,102255.47
2019-02-15T19:46:58.423Z,102259.90
2019-02-15T19:49:24.537Z,102253.76
2019-02-15T19:51:50.585Z,102259.52
2019-02-15T19:54:16.635Z,102253.76
2019-02-15T19:56:42.638Z,102250.28
2019-02-15T19:59:08.638Z,102249.36
2019-02-15T20:01:34.732Z,102255.47
2019-02-15T20:04:00.744Z,102247.56
2019-02-15T20:06:26.816Z,102247.08
2019-02-15T20:08:52.865Z,102246.24
2019-02-15T20:11:18.873Z,102251.52
2019-02-15T20:13:44.862Z,102251.52
2019-02-15T20:16:10.877Z,102237.50
2019-02-15T20:18:36.868Z,102242.29
2019-02-15T20:21:02.876Z,102240.97
2019-02-15T20:23:28.892Z,102242.29
2019-02-15T20:25:54.966Z,102256.30
2019-02-15T20:28:20.958Z,102244.80
2019-02-15T20:30:46.955Z,102245.41
2019-02-15T20:33:12.961Z,102245.02
2019-02-15T20:35:39.040Z,102238.52
2019-02-15T20:38:05.068Z,102247.65
2019-02-15T20:40:31.118Z,102248.97
2019-02-15T20:42:57.153Z,102249.92
2019-02-15T20:45:23.198Z,102243.79
2019-02-15T20:47:49.318Z,102246.72
2019-02-15T20:50:15.402Z,102246.16
2019-02-15T20:52:41.464Z,102241.75
2019-02-15T20:55:07.440Z,102234.30
2019-02-15T20:57:33.606Z,102230.34
2019-02-15T20:59:59.723Z,102234.77
2019-02-15T21:02:25.731Z,102231.88
2019-02-15T21:04:51.894Z,102235.34
2019-02-15T21:07:17.910Z,102245.44
2019-02-15T21:09:43.945Z,102245.52
2019-02-15T21:12:09.961Z,102246.00
2019-02-15T21:14:36.078Z,102245.61
2019-02-15T21:17:02.065Z,102238.67
2019-02-15T21:19:28.065Z,102250.88
2019-02-15T21:21:54.149Z,102244.30
2019-02-15T21:24:20.140Z,102247.14
2019-02-15T21:26:46.136Z,102236.61
2019-02-15T21:29:12.168Z,102242.35
2019-02-15T21:31:38.222Z,102239.72
2019-02-15T21:34:04.231Z,102235.50
2019-02-15T21:36:30.460Z,102236.81
2019-02-15T21:38:58.043Z,102238.67
2019-02-15T21:41:24.264Z,102239.51
2019-02-15T21:43:50.331Z,102241.30
2019-02-15T21:46:16.380Z,102243.94
2019-02-15T21:48:42.456Z,102242.27
2019-02-15T21:51:08.456Z,102240.67
2019-02-15T21:53:34.535Z,102243.67
2019-02-15T21:56:00.647Z,102241.52
2019-02-15T21:58:26.628Z,102238.04
2019-02-15T22:00:52.711Z,102236.72
2019-02-15T22:03:18.721Z,102231.06
2019-02-15T22:05:44.792Z,102222.80
2019-02-15T22:08:10.772Z,102232.02
2019-02-15T22:10:36.780Z,102228.16
2019-02-15T22:13:02.842Z,102222.05
2019-02-15T22:15:28.894Z,102226.84
2019-02-15T22:17:54.910Z,102234.74
2019-02-15T22:20:26.602Z,102227.89
2019-02-15T22:22:48.690Z,102230.16
2019-02-15T22:25:14.686Z,102226.21
2019-02-15T22:27:40.718Z,102227.97
2019-02-15T22:30:06.740Z,102227.97
2019-02-15T22:32:32.825Z,102221.98
2019-02-15T22:34:58.843Z,102225.82
2019-02-15T22:37:24.889Z,102219.36
2019-02-15T22:39:50.986Z,102214.53
2019-02-15T22:42:17.027Z,102220.67
2019-02-15T22:44:43.191Z,102219.44
2019-02-15T22:47:09.183Z,102217.29
2019-02-15T22:49:43.170Z,102210.31
2019-02-15T22:52:02.911Z,102218.21
2019-02-15T22:54:28.958Z,102209.00
2019-02-15T22:56:54.972Z,102209.56
2019-02-15T22:59:20.956Z,102213.91
2019-02-15T23:01:46.989Z,102201.30
2019-02-15T23:04:13.266Z,102204.30
2019-02-15T23:06:39.256Z,102199.15
2019-02-15T23:09:05.243Z,102193.77
2019-02-15T23:11:31.254Z,102199.51
2019-02-15T23:13:57.240Z,102196.52
2019-02-15T23:16:23.252Z,102203.09
2019-02-15T23:18:49.247Z,102202.27
2019-02-15T23:21:15.269Z,102204.51
2019-02-15T23:23:41.341Z,102200.20
2019-02-15T23:26:07.496Z,102198.88
2019-02-15T23:28:33.486Z,102198.48
2019-02-15T23:30:59.463Z,102195.02
2019-02-15T23:33:25.467Z,102195.50
2019-02-15T23:35:51.446Z,102192.50
2019-02-15T23:38:17.458Z,102194.27
2019-02-15T23:40:43.493Z,102194.66
2019-02-15T23:43:09.483Z,102189.48
2019-02-15T23:45:35.509Z,102189.13
2019-02-15T23:48:01.650Z,102188.28
2019-02-15T23:50:27.656Z,102185.27
2019-02-15T23:52:53.656Z,102179.52
2019-02-15T23:55:19.677Z,102174.73
2019-02-15T23:57:45.672Z,102180.83
